AIRPORT ID: S03

DATE: 2024-07-20 ZULU TIME: 14.35 LOCAL TIME: 7.35


METAR KS03 201435Z AUTO 00000KT 10SM 18/12 A3014

ALTIMETER: A3014 Q1021

DENSITY ALT: 2400 Ft

WIND DIRECT: 210

WIND SPEED: 0 Gust

WIND CONDITIONS:

VISIBILTY: 10SM 9999M

TEMPERATURE: 65 F 18 C

DEW POINT: 54 F 12 C

HUMID: 67%

LCL: 1,000-3,000 feet

RADIO CHECK: 0

ADVISARIES: 0

GREETINGS: 0

CONVERSATIONS: 1